Time;durP1;ratioP1;P1;durP2;ratioP2;P2;SDS_P1;SDS_P2;PMS_P1;PMS_P2;Temp;Humidity;BMP_temperature;BMP_pressure;BME280_temperature;BME280_humidity;BME280_pressure;Samples;Min_cycle;Max_cycle;Signal;HPM_P1;HPM_P2
2023/09/29 00:00:18;;;;;;;11.02;10.52;;;;;;;;;;5083307;28;20035;-65
2023/09/29 00:02:44;;;;;;;11.63;11.13;;;;;;;;;;5079413;28;20535;-65
2023/09/29 00:05:10;;;;;;;12.20;11.60;;;;;;;;;;5090469;28;20142;-65
2023/09/29 00:07:37;;;;;;;11.38;10.88;;;;;;;;;;5098645;28;20129;-66
2023/09/29 00:10:02;;;;;;;12.00;11.40;;;;;;;;;;5096564;28;20038;-65
2023/09/29 00:12:28;;;;;;;11.55;11.00;;;;;;;;;;5099699;27;20433;-63
2023/09/29 00:14:54;;;;;;;11.25;10.75;;;;;;;;;;5099417;27;20065;-65
2023/09/29 00:17:19;;;;;;;12.55;11.95;;;;;;;;;;5095772;28;20063;-66
2023/09/29 00:19:45;;;;;;;12.38;11.77;;;;;;;;;;5099469;28;20550;-67
2023/09/29 00:22:11;;;;;;;12.15;11.55;;;;;;;;;;5095881;28;20451;-64
2023/09/29 00:24:36;;;;;;;11.23;10.73;;;;;;;;;;5092685;27;20031;-64
2023/09/29 00:27:02;;;;;;;11.05;10.55;;;;;;;;;;5094633;28;20031;-63
2023/09/29 00:29:27;;;;;;;12.10;11.50;;;;;;;;;;5096231;27;20428;-63
2023/09/29 00:31:52;;;;;;;12.25;11.65;;;;;;;;;;5095385;28;20024;-63
2023/09/29 00:34:18;;;;;;;12.20;11.60;;;;;;;;;;5097489;27;20064;-63
2023/09/29 00:36:47;;;;;;;12.07;11.48;;;;;;;;;;5100065;27;20048;-63
2023/09/29 00:39:13;;;;;;;10.82;10.32;;;;;;;;;;5094492;28;20020;-63
2023/09/29 00:41:39;;;;;;;11.20;10.70;;;;;;;;;;5099185;28;20026;-64
2023/09/29 00:44:06;;;;;;;11.05;10.55;;;;;;;;;;5095667;27;20035;-63
2023/09/29 00:46:31;;;;;;;12.85;12.25;;;;;;;;;;5099293;28;20102;-63
2023/09/29 00:48:57;;;;;;;10.95;10.45;;;;;;;;;;5100168;27;20027;-65
2023/09/29 00:51:22;;;;;;;11.85;11.25;;;;;;;;;;5097229;28;20027;-63
2023/09/29 00:53:50;;;;;;;12.02;11.43;;;;;;;;;;5092263;28;20103;-64
2023/09/29 00:56:15;;;;;;;11.55;11.05;;;;;;;;;;5096127;27;20012;-64
2023/09/29 00:58:42;;;;;;;11.07;10.57;;;;;;;;;;5102192;27;20035;-67
2023/09/29 01:01:08;;;;;;;11.55;11.05;;;;;;;;;;5095631;28;20028;-64
2023/09/29 01:03:33;;;;;;;12.02;11.43;;;;;;;;;;5088566;27;20077;-66
2023/09/29 01:05:59;;;;;;;10.77;10.27;;;;;;;;;;5081066;28;20487;-67
2023/09/29 01:08:26;;;;;;;11.18;10.68;;;;;;;;;;5082097;28;20028;-67
2023/09/29 01:10:55;;;;;;;11.25;10.75;;;;;;;;;;5086458;28;20032;-66
2023/09/29 01:13:22;;;;;;;11.43;10.93;;;;;;;;;;5083663;28;20514;-67
2023/09/29 01:15:47;;;;;;;11.35;10.85;;;;;;;;;;5088816;28;20119;-66
2023/09/29 01:18:13;;;;;;;11.13;10.63;;;;;;;;;;5087602;28;20047;-68
2023/09/29 01:20:39;;;;;;;11.40;10.90;;;;;;;;;;5085345;28;20108;-66
2023/09/29 01:23:05;;;;;;;11.20;10.70;;;;;;;;;;5082215;28;20161;-67
2023/09/29 01:25:30;;;;;;;11.57;11.07;;;;;;;;;;5087162;28;20099;-66
2023/09/29 01:27:56;;;;;;;11.27;10.77;;;;;;;;;;5083376;28;20020;-67
2023/09/29 01:30:22;;;;;;;10.80;10.30;;;;;;;;;;5080844;28;20028;-67
2023/09/29 01:32:48;;;;;;;10.98;10.48;;;;;;;;;;5064483;28;20023;-66
2023/09/29 01:35:17;;;;;;;11.05;10.55;;;;;;;;;;5083289;28;20491;-67
2023/09/29 01:37:46;;;;;;;10.57;10.07;;;;;;;;;;5083504;28;20477;-68
2023/09/29 01:40:12;;;;;;;11.25;10.75;;;;;;;;;;5080419;28;20369;-67
2023/09/29 01:42:37;;;;;;;11.45;10.95;;;;;;;;;;5076506;28;20039;-69
2023/09/29 01:45:04;;;;;;;11.25;10.75;;;;;;;;;;5081990;28;20027;-67
2023/09/29 01:47:30;;;;;;;11.10;10.60;;;;;;;;;;5086067;28;20028;-67
2023/09/29 01:49:55;;;;;;;11.38;10.88;;;;;;;;;;5087491;28;20408;-67
2023/09/29 01:52:22;;;;;;;11.10;10.60;;;;;;;;;;5086849;28;20025;-67
2023/09/29 01:54:49;;;;;;;11.98;11.38;;;;;;;;;;5083095;28;20025;-68
2023/09/29 01:57:15;;;;;;;10.90;10.40;;;;;;;;;;5087944;28;20073;-67
2023/09/29 01:59:40;;;;;;;11.63;11.10;;;;;;;;;;5086494;28;20103;-67
2023/09/29 02:02:05;;;;;;;11.07;10.57;;;;;;;;;;5088881;28;20095;-67
2023/09/29 02:04:31;;;;;;;11.10;10.60;;;;;;;;;;5088524;28;20548;-67
2023/09/29 02:06:56;;;;;;;11.48;10.98;;;;;;;;;;5087693;28;20024;-66
2023/09/29 02:09:21;;;;;;;11.27;10.77;;;;;;;;;;5089938;28;20024;-66
2023/09/29 02:11:48;;;;;;;11.50;11.00;;;;;;;;;;5088816;28;20016;-67
2023/09/29 02:14:13;;;;;;;11.25;10.75;;;;;;;;;;5087263;28;20066;-67
2023/09/29 02:16:38;;;;;;;10.98;10.48;;;;;;;;;;5088332;28;20017;-67
2023/09/29 02:19:06;;;;;;;10.95;10.45;;;;;;;;;;5083898;28;20108;-67
2023/09/29 02:21:32;;;;;;;11.40;10.90;;;;;;;;;;5084626;28;20020;-66
2023/09/29 02:23:58;;;;;;;11.13;10.63;;;;;;;;;;5090941;28;20027;-66
2023/09/29 02:26:25;;;;;;;11.10;10.60;;;;;;;;;;5073369;28;20489;-67
2023/09/29 02:28:50;;;;;;;11.40;10.90;;;;;;;;;;5088071;28;20099;-67
2023/09/29 02:31:17;;;;;;;10.63;10.13;;;;;;;;;;5090045;28;20110;-66
2023/09/29 02:33:42;;;;;;;11.20;10.70;;;;;;;;;;5088507;28;20020;-67
2023/09/29 02:36:08;;;;;;;10.38;9.88;;;;;;;;;;5082558;28;20016;-67
2023/09/29 02:38:33;;;;;;;10.60;10.10;;;;;;;;;;5083122;28;20045;-67
2023/09/29 02:41:01;;;;;;;10.90;10.40;;;;;;;;;;5082265;28;20025;-66
2023/09/29 02:43:29;;;;;;;10.70;10.20;;;;;;;;;;5083381;28;20035;-66
2023/09/29 02:45:54;;;;;;;11.00;10.50;;;;;;;;;;5087407;28;20031;-66
2023/09/29 02:48:20;;;;;;;10.80;10.30;;;;;;;;;;5086995;28;20032;-68
2023/09/29 02:50:45;;;;;;;10.60;10.10;;;;;;;;;;5086930;28;20043;-68
2023/09/29 02:53:10;;;;;;;10.80;10.30;;;;;;;;;;5085548;28;20028;-68
2023/09/29 02:55:37;;;;;;;10.90;10.40;;;;;;;;;;5087829;28;20087;-68
2023/09/29 02:58:04;;;;;;;11.20;10.70;;;;;;;;;;5086538;28;20043;-67
2023/09/29 03:00:31;;;;;;;11.45;10.95;;;;;;;;;;5088224;28;20054;-68
2023/09/29 03:02:56;;;;;;;10.80;10.30;;;;;;;;;;5087061;28;20028;-67
2023/09/29 03:05:22;;;;;;;11.85;11.25;;;;;;;;;;5080136;28;20575;-68
2023/09/29 03:07:47;;;;;;;10.95;10.45;;;;;;;;;;5086455;28;20353;-66
2023/09/29 03:10:14;;;;;;;10.55;10.05;;;;;;;;;;5104834;28;20512;-68
2023/09/29 03:12:40;;;;;;;10.38;9.88;;;;;;;;;;5087143;28;20070;-66
2023/09/29 03:15:09;;;;;;;10.48;9.98;;;;;;;;;;5086499;28;20033;-67
2023/09/29 03:17:35;;;;;;;10.32;9.82;;;;;;;;;;5083173;28;20043;-68
2023/09/29 03:20:00;;;;;;;10.88;10.38;;;;;;;;;;5085116;28;20479;-67
2023/09/29 03:22:25;;;;;;;10.88;10.38;;;;;;;;;;5086584;28;20048;-67
2023/09/29 03:24:51;;;;;;;11.30;10.80;;;;;;;;;;5084699;28;20058;-67
2023/09/29 03:27:17;;;;;;;11.20;10.70;;;;;;;;;;5081586;28;20016;-67
2023/09/29 03:29:43;;;;;;;11.18;10.68;;;;;;;;;;5082413;28;20103;-65
2023/09/29 03:32:09;;;;;;;11.05;10.55;;;;;;;;;;5061977;28;20115;-67
2023/09/29 03:34:34;;;;;;;11.13;10.63;;;;;;;;;;5087584;28;20391;-67
2023/09/29 03:37:00;;;;;;;10.48;9.98;;;;;;;;;;5083162;28;20020;-67
2023/09/29 03:39:25;;;;;;;11.10;10.60;;;;;;;;;;5079125;28;20050;-67
2023/09/29 03:41:51;;;;;;;10.85;10.35;;;;;;;;;;5085936;28;20038;-66
2023/09/29 03:44:16;;;;;;;10.63;10.13;;;;;;;;;;5078354;28;20024;-67
2023/09/29 03:46:42;;;;;;;10.85;10.35;;;;;;;;;;5082550;28;20024;-68
2023/09/29 03:49:10;;;;;;;10.70;10.20;;;;;;;;;;5078644;28;20078;-68
2023/09/29 03:51:35;;;;;;;10.65;10.15;;;;;;;;;;5085200;28;20030;-67
2023/09/29 03:54:00;;;;;;;10.80;10.30;;;;;;;;;;5088122;28;20028;-67
2023/09/29 03:56:26;;;;;;;11.73;11.13;;;;;;;;;;5089171;28;20386;-68
2023/09/29 03:58:55;;;;;;;10.68;10.18;;;;;;;;;;5071966;28;20028;-67
2023/09/29 04:01:21;;;;;;;11.02;10.52;;;;;;;;;;5082935;28;20024;-67
2023/09/29 04:03:46;;;;;;;11.45;10.90;;;;;;;;;;5089324;28;20020;-68
2023/09/29 04:06:11;;;;;;;10.48;9.98;;;;;;;;;;5072023;28;20408;-67
2023/09/29 04:08:38;;;;;;;10.60;10.10;;;;;;;;;;5096843;28;20382;-68
2023/09/29 04:11:04;;;;;;;10.85;10.35;;;;;;;;;;5091020;28;20070;-67
2023/09/29 04:13:30;;;;;;;10.88;10.38;;;;;;;;;;5087859;28;20044;-67
2023/09/29 04:15:58;;;;;;;11.13;10.63;;;;;;;;;;5088646;28;20016;-67
2023/09/29 04:18:24;;;;;;;11.05;10.55;;;;;;;;;;5074457;28;20426;-67
2023/09/29 04:20:49;;;;;;;10.73;10.23;;;;;;;;;;5089239;28;20032;-67
2023/09/29 04:23:14;;;;;;;11.05;10.55;;;;;;;;;;5092621;28;20054;-67
2023/09/29 04:25:39;;;;;;;10.60;10.10;;;;;;;;;;5093445;28;20471;-66
2023/09/29 04:28:05;;;;;;;11.23;10.73;;;;;;;;;;5096401;28;20031;-68
2023/09/29 04:30:30;;;;;;;11.20;10.70;;;;;;;;;;5092683;28;20028;-68
2023/09/29 04:32:55;;;;;;;11.40;10.90;;;;;;;;;;5068927;28;20380;-68
2023/09/29 04:35:21;;;;;;;11.18;10.68;;;;;;;;;;5091517;28;20020;-66
2023/09/29 04:37:47;;;;;;;11.43;10.93;;;;;;;;;;5090304;28;20049;-67
2023/09/29 04:40:12;;;;;;;10.98;10.48;;;;;;;;;;5088870;28;20050;-67
2023/09/29 04:42:38;;;;;;;11.10;10.60;;;;;;;;;;5087386;28;20099;-69
2023/09/29 04:45:03;;;;;;;11.00;10.50;;;;;;;;;;5073902;28;20119;-67
2023/09/29 04:47:30;;;;;;;11.20;10.70;;;;;;;;;;5090180;28;20016;-67
2023/09/29 04:49:55;;;;;;;11.50;11.00;;;;;;;;;;5089485;28;20563;-68
2023/09/29 04:52:21;;;;;;;11.43;10.93;;;;;;;;;;5087376;28;20020;-67
2023/09/29 04:54:46;;;;;;;11.25;10.75;;;;;;;;;;5087792;28;20016;-66
2023/09/29 04:57:11;;;;;;;11.40;10.90;;;;;;;;;;5088315;28;20021;-67
2023/09/29 04:59:37;;;;;;;11.63;11.13;;;;;;;;;;5069429;28;20016;-68
2023/09/29 05:02:02;;;;;;;11.00;10.50;;;;;;;;;;5091270;28;20119;-67
2023/09/29 05:04:27;;;;;;;11.30;10.80;;;;;;;;;;5096147;28;20046;-67
2023/09/29 05:06:53;;;;;;;11.63;11.13;;;;;;;;;;5109104;28;20467;-68
2023/09/29 05:09:21;;;;;;;11.60;11.10;;;;;;;;;;5111333;28;20435;-67
2023/09/29 05:11:46;;;;;;;11.60;11.10;;;;;;;;;;5096124;28;20425;-67
2023/09/29 05:14:12;;;;;;;12.05;11.55;;;;;;;;;;5110549;28;20092;-67
2023/09/29 05:16:37;;;;;;;11.60;11.10;;;;;;;;;;5116257;28;20007;-67
2023/09/29 05:19:03;;;;;;;11.70;11.20;;;;;;;;;;5109874;28;20015;-67
2023/09/29 05:21:28;;;;;;;11.90;11.40;;;;;;;;;;5109821;28;20482;-67
2023/09/29 05:23:53;;;;;;;12.45;11.88;;;;;;;;;;5107399;28;20080;-68
2023/09/29 05:26:19;;;;;;;11.88;11.38;;;;;;;;;;5112947;28;20023;-68
2023/09/29 05:28:44;;;;;;;11.73;11.23;;;;;;;;;;5112979;28;20106;-67
2023/09/29 05:31:10;;;;;;;11.98;11.48;;;;;;;;;;5114240;27;20028;-67
2023/09/29 05:33:35;;;;;;;11.80;11.30;;;;;;;;;;5111714;27;20128;-68
2023/09/29 05:36:01;;;;;;;11.88;11.38;;;;;;;;;;5114632;27;21398;-67
2023/09/29 05:38:26;;;;;;;11.88;11.38;;;;;;;;;;5114157;27;20041;-68
2023/09/29 05:40:52;;;;;;;11.55;11.05;;;;;;;;;;5110783;27;20020;-68
2023/09/29 05:43:17;;;;;;;12.02;11.52;;;;;;;;;;5120604;27;20062;-67
2023/09/29 05:45:46;;;;;;;11.82;11.32;;;;;;;;;;5110984;27;20396;-70
2023/09/29 05:48:12;;;;;;;11.75;11.25;;;;;;;;;;5116907;27;20016;-68
2023/09/29 05:50:38;;;;;;;11.75;11.25;;;;;;;;;;5120803;27;20038;-67
2023/09/29 05:53:04;;;;;;;11.82;11.32;;;;;;;;;;5108820;27;20095;-67
2023/09/29 05:55:29;;;;;;;11.82;11.32;;;;;;;;;;5109789;28;20062;-68
2023/09/29 05:57:55;;;;;;;12.00;11.50;;;;;;;;;;5110923;27;20104;-68
2023/09/29 06:00:20;;;;;;;12.00;11.50;;;;;;;;;;5112215;27;20923;-67
2023/09/29 06:02:46;;;;;;;11.77;11.27;;;;;;;;;;5110774;27;20255;-67
2023/09/29 06:05:12;;;;;;;11.93;11.43;;;;;;;;;;5114083;27;20214;-68
2023/09/29 06:07:37;;;;;;;11.75;11.25;;;;;;;;;;5114880;27;20015;-69
2023/09/29 06:10:03;;;;;;;12.13;11.63;;;;;;;;;;5113086;27;20145;-67
2023/09/29 06:12:29;;;;;;;11.95;11.45;;;;;;;;;;5110872;28;20016;-67
2023/09/29 06:14:54;;;;;;;12.05;11.55;;;;;;;;;;5110568;28;20474;-67
2023/09/29 06:17:19;;;;;;;11.90;11.40;;;;;;;;;;5112880;27;20023;-67
2023/09/29 06:19:45;;;;;;;12.07;11.57;;;;;;;;;;5113902;27;20028;-68
2023/09/29 06:22:10;;;;;;;12.07;11.57;;;;;;;;;;5110217;28;20252;-66
2023/09/29 06:24:35;;;;;;;11.70;11.20;;;;;;;;;;5114984;27;20038;-66
2023/09/29 06:27:01;;;;;;;12.05;11.55;;;;;;;;;;5110600;28;20027;-68
2023/09/29 06:29:26;;;;;;;11.88;11.38;;;;;;;;;;5111981;28;20024;-67
2023/09/29 06:31:53;;;;;;;11.80;11.30;;;;;;;;;;5110844;28;20045;-67
2023/09/29 06:34:19;;;;;;;12.07;11.57;;;;;;;;;;5111324;28;20548;-67
2023/09/29 06:36:44;;;;;;;12.13;11.63;;;;;;;;;;5115027;27;20068;-67
2023/09/29 06:39:11;;;;;;;11.95;11.45;;;;;;;;;;5114595;27;20344;-68
2023/09/29 06:41:37;;;;;;;12.05;11.55;;;;;;;;;;5111605;27;20118;-67
2023/09/29 06:44:02;;;;;;;12.10;11.60;;;;;;;;;;5114907;27;20106;-68
2023/09/29 06:46:28;;;;;;;12.20;11.70;;;;;;;;;;5118195;27;20054;-68
2023/09/29 06:48:53;;;;;;;11.90;11.40;;;;;;;;;;5112595;27;20057;-67
2023/09/29 06:51:20;;;;;;;12.30;11.80;;;;;;;;;;5111046;28;20279;-68
2023/09/29 06:53:45;;;;;;;11.98;11.48;;;;;;;;;;5106525;27;20630;-68
2023/09/29 06:56:10;;;;;;;12.05;11.55;;;;;;;;;;5114886;27;20027;-69
2023/09/29 06:58:36;;;;;;;11.90;11.40;;;;;;;;;;5115867;27;20030;-68
2023/09/29 07:01:02;;;;;;;12.00;11.50;;;;;;;;;;5111723;28;20103;-67
2023/09/29 07:03:29;;;;;;;12.20;11.70;;;;;;;;;;5112984;27;20034;-67
2023/09/29 07:05:55;;;;;;;11.85;11.35;;;;;;;;;;5116994;27;20092;-67
2023/09/29 07:08:20;;;;;;;12.10;11.60;;;;;;;;;;5112930;27;20023;-68
2023/09/29 07:10:46;;;;;;;12.30;11.80;;;;;;;;;;5113286;27;20024;-68
2023/09/29 07:13:11;;;;;;;12.00;11.50;;;;;;;;;;5110977;27;20058;-67
2023/09/29 07:15:36;;;;;;;11.90;11.40;;;;;;;;;;5113119;27;20033;-66
2023/09/29 07:18:01;;;;;;;11.63;11.13;;;;;;;;;;5112186;27;20248;-67
2023/09/29 07:20:27;;;;;;;11.80;11.30;;;;;;;;;;5112579;27;20259;-67
2023/09/29 07:22:52;;;;;;;11.90;11.40;;;;;;;;;;5109888;28;20112;-66
2023/09/29 07:25:18;;;;;;;12.27;11.77;;;;;;;;;;5112070;27;20486;-68
2023/09/29 07:27:44;;;;;;;11.73;11.23;;;;;;;;;;5111108;27;20662;-68
2023/09/29 07:30:10;;;;;;;11.88;11.38;;;;;;;;;;5114099;27;20016;-67
2023/09/29 07:32:36;;;;;;;11.73;11.23;;;;;;;;;;5117890;27;20016;-67
2023/09/29 07:35:03;;;;;;;11.88;11.38;;;;;;;;;;5115847;27;20068;-68
2023/09/29 07:37:28;;;;;;;11.98;11.48;;;;;;;;;;5095855;28;20020;-68
2023/09/29 07:39:54;;;;;;;12.00;11.50;;;;;;;;;;5112199;27;20015;-68
2023/09/29 07:42:19;;;;;;;11.90;11.40;;;;;;;;;;5115247;27;20023;-68
2023/09/29 07:44:44;;;;;;;11.70;11.20;;;;;;;;;;5117035;27;20294;-68
2023/09/29 07:47:10;;;;;;;11.90;11.40;;;;;;;;;;5114188;27;20356;-68
2023/09/29 07:49:40;;;;;;;12.27;11.77;;;;;;;;;;5111598;27;20055;-68
2023/09/29 07:52:06;;;;;;;11.88;11.38;;;;;;;;;;5114190;27;20386;-67
2023/09/29 07:54:31;;;;;;;11.98;11.48;;;;;;;;;;5110658;28;20531;-69
2023/09/29 07:56:56;;;;;;;11.57;11.07;;;;;;;;;;5110467;27;20107;-68
2023/09/29 07:59:22;;;;;;;11.80;11.30;;;;;;;;;;5111694;27;20264;-68
2023/09/29 08:01:49;;;;;;;12.00;11.50;;;;;;;;;;5111614;27;20030;-68
2023/09/29 08:04:15;;;;;;;11.70;11.20;;;;;;;;;;5113458;27;20467;-67
2023/09/29 08:06:40;;;;;;;11.55;11.05;;;;;;;;;;5102868;27;20016;-68
2023/09/29 08:09:06;;;;;;;11.70;11.20;;;;;;;;;;5110249;27;20076;-67
2023/09/29 08:11:32;;;;;;;11.55;11.05;;;;;;;;;;5115296;27;20489;-66
2023/09/29 08:13:57;;;;;;;11.70;11.20;;;;;;;;;;5109809;28;20045;-67
2023/09/29 08:16:24;;;;;;;11.77;11.27;;;;;;;;;;5114938;27;20031;-66
2023/09/29 08:18:49;;;;;;;11.80;11.30;;;;;;;;;;5111681;27;20016;-68
2023/09/29 08:21:14;;;;;;;12.13;11.63;;;;;;;;;;5113151;27;20042;-68
2023/09/29 08:23:40;;;;;;;12.25;11.75;;;;;;;;;;5108274;27;20604;-68
2023/09/29 08:26:05;;;;;;;12.10;11.60;;;;;;;;;;5112498;27;20055;-68
2023/09/29 08:28:30;;;;;;;12.00;11.50;;;;;;;;;;5111235;27;20027;-67
2023/09/29 08:30:56;;;;;;;11.77;11.27;;;;;;;;;;5108702;28;20279;-67
2023/09/29 08:33:23;;;;;;;11.95;11.45;;;;;;;;;;5112562;27;20039;-67
2023/09/29 08:35:48;;;;;;;11.70;11.20;;;;;;;;;;5114157;27;20015;-67
2023/09/29 08:38:14;;;;;;;11.93;11.43;;;;;;;;;;5112430;27;20073;-68
2023/09/29 08:40:41;;;;;;;11.68;11.18;;;;;;;;;;5108036;28;20023;-67
2023/09/29 08:43:10;;;;;;;12.20;11.70;;;;;;;;;;5109281;28;20019;-67
2023/09/29 08:45:37;;;;;;;11.80;11.30;;;;;;;;;;5111533;28;20022;-67
2023/09/29 08:48:06;;;;;;;11.65;11.15;;;;;;;;;;5109673;27;20031;-67
2023/09/29 08:50:32;;;;;;;12.00;11.50;;;;;;;;;;5107112;28;20027;-67
2023/09/29 08:52:59;;;;;;;11.95;11.45;;;;;;;;;;5116487;27;20076;-67
2023/09/29 08:55:26;;;;;;;12.10;11.60;;;;;;;;;;5111041;27;20041;-67
2023/09/29 08:57:52;;;;;;;11.73;11.23;;;;;;;;;;5116406;27;20099;-67
2023/09/29 09:00:19;;;;;;;11.95;11.45;;;;;;;;;;5109528;27;20102;-67
2023/09/29 09:02:47;;;;;;;11.75;11.25;;;;;;;;;;5108614;27;20076;-67
2023/09/29 09:05:14;;;;;;;11.63;11.13;;;;;;;;;;5108693;28;20043;-69
2023/09/29 09:07:43;;;;;;;11.50;11.00;;;;;;;;;;5108988;28;20356;-67
2023/09/29 09:10:09;;;;;;;11.70;11.20;;;;;;;;;;5110915;28;20055;-67
2023/09/29 09:12:35;;;;;;;11.73;11.23;;;;;;;;;;5110869;28;20061;-67
2023/09/29 09:15:01;;;;;;;11.75;11.25;;;;;;;;;;5107887;28;20026;-67
2023/09/29 09:17:27;;;;;;;11.68;11.18;;;;;;;;;;5109706;28;20015;-68
2023/09/29 09:19:52;;;;;;;12.00;11.50;;;;;;;;;;5108113;28;20020;-67
2023/09/29 09:22:22;;;;;;;11.98;11.48;;;;;;;;;;5107134;28;20119;-67
2023/09/29 09:24:48;;;;;;;12.15;11.65;;;;;;;;;;5108469;28;20565;-67
2023/09/29 09:27:13;;;;;;;11.45;10.95;;;;;;;;;;5113111;28;20435;-68
2023/09/29 09:29:40;;;;;;;11.68;11.18;;;;;;;;;;5110491;28;20026;-67
2023/09/29 09:32:06;;;;;;;11.82;11.32;;;;;;;;;;5110878;28;20030;-67
2023/09/29 09:34:32;;;;;;;12.00;11.50;;;;;;;;;;5118530;28;20466;-67
2023/09/29 09:36:58;;;;;;;11.48;10.98;;;;;;;;;;5114170;28;20019;-67
2023/09/29 09:39:24;;;;;;;11.82;11.32;;;;;;;;;;5110347;28;20028;-65
2023/09/29 09:41:50;;;;;;;11.88;11.38;;;;;;;;;;5111355;28;20145;-66
2023/09/29 09:44:17;;;;;;;11.88;11.38;;;;;;;;;;5114741;28;20404;-67
2023/09/29 09:46:44;;;;;;;11.98;11.48;;;;;;;;;;5109765;28;20046;-67
2023/09/29 09:49:10;;;;;;;12.13;11.63;;;;;;;;;;5111233;28;20031;-67
2023/09/29 09:51:38;;;;;;;12.07;11.57;;;;;;;;;;5107816;28;20054;-68
2023/09/29 09:54:08;;;;;;;11.85;11.35;;;;;;;;;;5115716;28;20020;-67
2023/09/29 09:56:46;;;;;;;11.52;11.02;;;;;;;;;;5107320;28;20028;-67
2023/09/29 09:59:12;;;;;;;11.65;11.15;;;;;;;;;;5111467;28;20020;-67
2023/09/29 10:01:39;;;;;;;11.50;11.00;;;;;;;;;;5110762;28;20027;-68
2023/09/29 10:04:06;;;;;;;11.65;11.15;;;;;;;;;;5109661;28;20036;-66
2023/09/29 10:06:33;;;;;;;12.05;11.55;;;;;;;;;;5110190;28;20081;-66
2023/09/29 10:09:00;;;;;;;11.80;11.30;;;;;;;;;;5110444;28;20020;-66
2023/09/29 10:11:29;;;;;;;11.77;11.27;;;;;;;;;;5110401;28;20390;-67
2023/09/29 10:14:05;;;;;;;11.63;11.13;;;;;;;;;;5108242;28;20175;-67
2023/09/29 10:16:31;;;;;;;11.80;11.30;;;;;;;;;;5111947;27;20016;-67
2023/09/29 10:19:01;;;;;;;12.07;11.57;;;;;;;;;;5116534;27;20490;-67
2023/09/29 10:21:33;;;;;;;11.70;11.20;;;;;;;;;;5116768;27;20571;-67
2023/09/29 10:24:00;;;;;;;11.63;11.13;;;;;;;;;;5097669;28;20046;-67
2023/09/29 10:26:26;;;;;;;11.38;10.88;;;;;;;;;;5114079;27;20425;-66
2023/09/29 10:29:01;;;;;;;11.60;11.10;;;;;;;;;;5119832;27;20030;-66
2023/09/29 10:31:29;;;;;;;11.90;11.40;;;;;;;;;;5112153;27;20027;-67
2023/09/29 10:33:55;;;;;;;11.40;10.90;;;;;;;;;;5111206;28;20012;-67
2023/09/29 10:36:23;;;;;;;11.68;11.18;;;;;;;;;;5119088;27;20023;-68
2023/09/29 10:38:49;;;;;;;11.73;11.23;;;;;;;;;;5119787;27;20339;-67
2023/09/29 10:41:15;;;;;;;12.32;11.77;;;;;;;;;;5113022;27;20022;-67
2023/09/29 10:43:47;;;;;;;11.65;11.15;;;;;;;;;;5099288;28;20029;-68
2023/09/29 10:46:15;;;;;;;11.75;11.25;;;;;;;;;;5117568;27;20020;-68
2023/09/29 10:48:48;;;;;;;11.73;11.23;;;;;;;;;;5111516;28;20073;-67
2023/09/29 10:51:27;;;;;;;11.85;11.35;;;;;;;;;;5107012;28;20046;-67
2023/09/29 10:53:53;;;;;;;11.88;11.38;;;;;;;;;;5112816;27;20023;-67
2023/09/29 10:56:19;;;;;;;11.70;11.20;;;;;;;;;;5112515;27;20640;-67
2023/09/29 10:58:45;;;;;;;11.52;11.02;;;;;;;;;;5111062;28;20091;-68
2023/09/29 11:01:11;;;;;;;11.77;11.27;;;;;;;;;;5112167;27;20406;-67
2023/09/29 11:03:37;;;;;;;11.63;11.13;;;;;;;;;;5111203;28;20064;-67
2023/09/29 11:06:09;;;;;;;11.70;11.20;;;;;;;;;;5112036;27;20051;-67
2023/09/29 11:08:43;;;;;;;11.75;11.25;;;;;;;;;;5109960;27;20020;-67
2023/09/29 11:11:09;;;;;;;;;;;;;;;;;;5112622;27;20016;-67
2023/09/29 11:13:37;;;;;;;11.55;11.05;;;;;;;;;;5112672;27;20472;-67
2023/09/29 11:16:04;;;;;;;11.60;11.10;;;;;;;;;;5113339;27;20030;-66
2023/09/29 11:18:29;;;;;;;11.85;11.35;;;;;;;;;;5112927;27;20444;-67
2023/09/29 11:20:57;;;;;;;12.00;11.50;;;;;;;;;;5111781;27;20031;-67
2023/09/29 11:23:24;;;;;;;11.57;11.07;;;;;;;;;;5117724;27;20065;-67
2023/09/29 11:25:50;;;;;;;12.05;11.55;;;;;;;;;;5117010;27;20114;-70
2023/09/29 11:28:16;;;;;;;11.70;11.20;;;;;;;;;;5120551;27;20016;-68
2023/09/29 11:30:42;;;;;;;11.88;11.38;;;;;;;;;;5109851;28;20019;-68
2023/09/29 11:33:11;;;;;;;11.68;11.18;;;;;;;;;;5114142;27;20018;-69
2023/09/29 11:35:37;;;;;;;11.50;11.00;;;;;;;;;;5116537;27;20065;-69
2023/09/29 11:38:03;;;;;;;11.68;11.18;;;;;;;;;;5115918;27;20062;-67
2023/09/29 11:40:28;;;;;;;11.82;11.32;;;;;;;;;;5117411;27;20027;-68
2023/09/29 11:42:54;;;;;;;11.70;11.20;;;;;;;;;;5113728;27;20033;-67
2023/09/29 11:45:19;;;;;;;11.50;11.00;;;;;;;;;;5118945;27;20031;-69
2023/09/29 11:47:44;;;;;;;11.50;11.00;;;;;;;;;;5103171;28;20015;-68
2023/09/29 11:50:10;;;;;;;11.82;11.32;;;;;;;;;;5095501;28;20039;-68
2023/09/29 11:52:39;;;;;;;11.48;10.98;;;;;;;;;;5111477;27;20500;-68
2023/09/29 11:55:08;;;;;;;11.90;11.40;;;;;;;;;;5110319;27;20024;-66
2023/09/29 11:57:34;;;;;;;11.60;11.10;;;;;;;;;;5110839;27;20030;-67
2023/09/29 11:59:59;;;;;;;11.40;10.90;;;;;;;;;;5112849;27;20611;-68
2023/09/29 12:02:24;;;;;;;11.38;10.88;;;;;;;;;;5111462;27;20015;-67
2023/09/29 12:04:50;;;;;;;11.73;11.23;;;;;;;;;;5111960;27;20055;-67
2023/09/29 12:07:16;;;;;;;11.82;11.32;;;;;;;;;;5111747;27;20024;-66
2023/09/29 12:09:41;;;;;;;11.88;11.38;;;;;;;;;;5100099;28;20502;-68
2023/09/29 12:12:06;;;;;;;11.73;11.23;;;;;;;;;;5099925;28;20039;-68
2023/09/29 12:14:32;;;;;;;11.40;10.90;;;;;;;;;;5097612;28;20016;-68
2023/09/29 12:16:58;;;;;;;11.60;11.10;;;;;;;;;;5111088;27;20034;-67
2023/09/29 12:19:23;;;;;;;11.65;11.15;;;;;;;;;;5110613;28;20049;-67
2023/09/29 12:21:49;;;;;;;11.45;10.95;;;;;;;;;;5109744;27;20049;-67
2023/09/29 12:24:14;;;;;;;11.75;11.25;;;;;;;;;;5127117;27;20041;-67
2023/09/29 12:26:46;;;;;;;11.50;11.00;;;;;;;;;;5109931;27;20023;-67
2023/09/29 12:29:11;;;;;;;11.60;11.10;;;;;;;;;;5115106;27;20064;-67
2023/09/29 12:31:37;;;;;;;11.38;10.88;;;;;;;;;;5111226;28;20114;-67
2023/09/29 12:34:04;;;;;;;11.57;11.07;;;;;;;;;;5095822;27;20455;-68
2023/09/29 12:36:30;;;;;;;11.25;10.75;;;;;;;;;;5112269;27;20387;-68
2023/09/29 12:38:55;;;;;;;11.65;11.15;;;;;;;;;;5113743;27;20019;-68
2023/09/29 12:41:21;;;;;;;11.70;11.20;;;;;;;;;;5108659;27;20080;-67
2023/09/29 12:43:47;;;;;;;11.48;10.98;;;;;;;;;;5109566;28;20019;-65
2023/09/29 12:46:12;;;;;;;11.55;11.05;;;;;;;;;;5091781;28;20756;-67
2023/09/29 12:48:38;;;;;;;11.07;10.57;;;;;;;;;;5110885;27;20110;-67
2023/09/29 12:51:03;;;;;;;11.65;11.15;;;;;;;;;;5108274;28;20126;-67
2023/09/29 12:53:29;;;;;;;11.40;10.90;;;;;;;;;;5108490;27;20072;-68
2023/09/29 12:55:54;;;;;;;11.40;10.90;;;;;;;;;;5107156;28;20012;-67
2023/09/29 12:58:19;;;;;;;11.43;10.93;;;;;;;;;;5114286;27;20343;-68
2023/09/29 13:00:45;;;;;;;11.43;10.93;;;;;;;;;;5108260;27;20051;-67
2023/09/29 13:03:11;;;;;;;11.93;11.43;;;;;;;;;;5107621;28;20036;-67
2023/09/29 13:05:37;;;;;;;11.80;11.30;;;;;;;;;;5111125;27;20043;-67
2023/09/29 13:08:03;;;;;;;11.40;10.90;;;;;;;;;;5108104;28;20210;-67
2023/09/29 13:10:31;;;;;;;11.77;11.27;;;;;;;;;;5109318;27;20398;-67
2023/09/29 13:12:56;;;;;;;12.00;11.50;;;;;;;;;;5109877;28;20219;-67
2023/09/29 13:15:21;;;;;;;11.85;11.35;;;;;;;;;;5108584;28;20539;-67
2023/09/29 13:17:47;;;;;;;11.63;11.13;;;;;;;;;;5106899;28;20031;-68
2023/09/29 13:20:13;;;;;;;11.82;11.32;;;;;;;;;;5101100;28;20061;-68
2023/09/29 13:22:38;;;;;;;11.73;11.23;;;;;;;;;;5090242;28;20024;-67
2023/09/29 13:25:05;;;;;;;11.55;11.05;;;;;;;;;;5113945;28;20022;-68
2023/09/29 13:27:32;;;;;;;11.57;11.07;;;;;;;;;;5112949;28;20420;-67
2023/09/29 13:29:57;;;;;;;11.77;11.27;;;;;;;;;;5106573;28;20023;-67
2023/09/29 13:32:23;;;;;;;11.70;11.20;;;;;;;;;;5109509;28;20032;-66
2023/09/29 13:34:48;;;;;;;11.77;11.27;;;;;;;;;;5112305;28;20028;-68
2023/09/29 13:37:18;;;;;;;11.43;10.93;;;;;;;;;;5111063;28;20491;-66
2023/09/29 13:39:45;;;;;;;12.07;11.57;;;;;;;;;;5107196;28;20024;-67
2023/09/29 13:42:10;;;;;;;11.38;10.88;;;;;;;;;;5114798;28;20020;-68
2023/09/29 13:44:35;;;;;;;11.27;10.77;;;;;;;;;;5111306;28;20092;-67
2023/09/29 13:47:01;;;;;;;11.32;10.82;;;;;;;;;;5108211;28;20035;-68
2023/09/29 13:49:26;;;;;;;11.60;11.10;;;;;;;;;;5114151;27;20019;-67
2023/09/29 13:51:53;;;;;;;11.47;10.97;;;;;;;;;;5116311;27;20111;-67
2023/09/29 13:54:19;;;;;;;11.40;10.90;;;;;;;;;;5120178;27;20295;-67
2023/09/29 13:56:45;;;;;;;11.63;11.13;;;;;;;;;;5118142;27;20429;-67
2023/09/29 13:59:11;;;;;;;11.65;11.15;;;;;;;;;;5118426;27;20012;-67
2023/09/29 14:01:37;;;;;;;11.63;11.13;;;;;;;;;;5101081;28;20103;-67
2023/09/29 14:04:02;;;;;;;12.27;11.77;;;;;;;;;;5118208;27;20110;-68
2023/09/29 14:06:28;;;;;;;11.68;11.18;;;;;;;;;;5102234;27;20524;-67
2023/09/29 14:08:54;;;;;;;11.57;11.07;;;;;;;;;;5112787;28;20538;-69
2023/09/29 14:11:19;;;;;;;11.65;11.15;;;;;;;;;;5111945;27;20098;-68